Harthill, United Kingdom
Current Conditions -  °F | °C
As of 4:20 PM on Saturday 22 Nov 2014 (Local Time) from EGPH Reporting Station
Scattered Clouds Scattered Clouds  
Wind Chill: 46°   Ceiling: Unl
Heat Index: 48°   Visibility: 6mi
Dew Point: 46°   Wind: 6mph
Humidity: 93%   Direction: 200°SSW
Pressure: 29.8"   Gusts: NA
Location:  55.87°N, 3.75°W
Report Text: EGPH 221620Z 20005KT 9999 FEW020 SCT042 09/08 Q1009
Loading
Personal Weather Stations






























Interactive Weather Map New forecast layout! Learn more

10-Day Weather Forecast

Advertisements
Track Severe Weather on mobile